sensor_id;sensor_type;location;lat;lon;timestamp;P1;durP1;ratioP1;P2;durP2;ratioP2
73219;SDS011;61434;43.538;-5.688;2023-01-06T00:00:20;21.90;;;10.70;;
73219;SDS011;61434;43.538;-5.688;2023-01-06T00:02:46;24.88;;;10.82;;
73219;SDS011;61434;43.538;-5.688;2023-01-06T00:05:12;21.70;;;10.60;;
73219;SDS011;61434;43.538;-5.688;2023-01-06T00:07:37;21.83;;;10.27;;
73219;SDS011;61434;43.538;-5.688;2023-01-06T00:10:03;20.30;;;9.68;;
73219;SDS011;61434;43.538;-5.688;2023-01-06T00:12:29;17.80;;;9.68;;
73219;SDS011;61434;43.538;-5.688;2023-01-06T00:14:55;21.80;;;9.83;;
73219;SDS011;61434;43.538;-5.688;2023-01-06T00:17:21;19.87;;;9.93;;
73219;SDS011;61434;43.538;-5.688;2023-01-06T00:19:46;19.90;;;10.13;;
73219;SDS011;61434;43.538;-5.688;2023-01-06T00:22:12;26.37;;;10.23;;
73219;SDS011;61434;43.538;-5.688;2023-01-06T00:24:37;22.88;;;10.23;;
73219;SDS011;61434;43.538;-5.688;2023-01-06T00:27:03;19.97;;;9.97;;
73219;SDS011;61434;43.538;-5.688;2023-01-06T00:29:28;23.23;;;10.27;;
73219;SDS011;61434;43.538;-5.688;2023-01-06T00:31:54;24.40;;;10.23;;
73219;SDS011;61434;43.538;-5.688;2023-01-06T00:34:19;20.88;;;10.77;;
73219;SDS011;61434;43.538;-5.688;2023-01-06T00:36:45;23.03;;;10.80;;
73219;SDS011;61434;43.538;-5.688;2023-01-06T00:39:11;25.37;;;10.90;;
73219;SDS011;61434;43.538;-5.688;2023-01-06T00:41:37;23.42;;;10.27;;
73219;SDS011;61434;43.538;-5.688;2023-01-06T00:44:21;20.35;;;10.48;;
73219;SDS011;61434;43.538;-5.688;2023-01-06T00:46:46;21.03;;;9.90;;
73219;SDS011;61434;43.538;-5.688;2023-01-06T00:49:12;21.40;;;9.37;;
73219;SDS011;61434;43.538;-5.688;2023-01-06T00:51:38;23.50;;;10.43;;
73219;SDS011;61434;43.538;-5.688;2023-01-06T00:54:05;23.48;;;10.82;;
73219;SDS011;61434;43.538;-5.688;2023-01-06T00:56:33;24.30;;;11.47;;
73219;SDS011;61434;43.538;-5.688;2023-01-06T00:59:00;20.25;;;9.88;;
73219;SDS011;61434;43.538;-5.688;2023-01-06T01:01:26;22.98;;;10.50;;
73219;SDS011;61434;43.538;-5.688;2023-01-06T01:03:51;20.67;;;9.93;;
73219;SDS011;61434;43.538;-5.688;2023-01-06T01:06:17;20.00;;;9.87;;
73219;SDS011;61434;43.538;-5.688;2023-01-06T01:08:42;20.70;;;9.48;;
73219;SDS011;61434;43.538;-5.688;2023-01-06T01:11:09;18.63;;;9.93;;
73219;SDS011;61434;43.538;-5.688;2023-01-06T01:13:55;21.42;;;9.80;;
73219;SDS011;61434;43.538;-5.688;2023-01-06T01:16:21;21.87;;;10.23;;
73219;SDS011;61434;43.538;-5.688;2023-01-06T01:18:46;22.83;;;9.57;;
73219;SDS011;61434;43.538;-5.688;2023-01-06T01:21:12;22.53;;;10.30;;
73219;SDS011;61434;43.538;-5.688;2023-01-06T01:23:37;23.63;;;10.18;;
73219;SDS011;61434;43.538;-5.688;2023-01-06T01:26:03;21.20;;;10.20;;
73219;SDS011;61434;43.538;-5.688;2023-01-06T01:28:28;20.77;;;10.20;;
73219;SDS011;61434;43.538;-5.688;2023-01-06T01:30:57;22.20;;;10.27;;
73219;SDS011;61434;43.538;-5.688;2023-01-06T01:33:29;22.98;;;10.40;;
73219;SDS011;61434;43.538;-5.688;2023-01-06T01:35:56;21.38;;;10.27;;
73219;SDS011;61434;43.538;-5.688;2023-01-06T01:38:21;22.30;;;10.23;;
73219;SDS011;61434;43.538;-5.688;2023-01-06T01:40:49;21.77;;;9.93;;
73219;SDS011;61434;43.538;-5.688;2023-01-06T01:43:15;20.52;;;9.65;;
73219;SDS011;61434;43.538;-5.688;2023-01-06T01:45:41;20.00;;;9.50;;
73219;SDS011;61434;43.538;-5.688;2023-01-06T01:48:13;19.23;;;9.80;;
73219;SDS011;61434;43.538;-5.688;2023-01-06T01:50:50;19.20;;;9.03;;
73219;SDS011;61434;43.538;-5.688;2023-01-06T01:55:44;22.50;;;10.23;;
73219;SDS011;61434;43.538;-5.688;2023-01-06T01:58:13;23.25;;;10.75;;
73219;SDS011;61434;43.538;-5.688;2023-01-06T02:00:44;21.73;;;9.93;;
73219;SDS011;61434;43.538;-5.688;2023-01-06T02:03:10;20.27;;;9.25;;
73219;SDS011;61434;43.538;-5.688;2023-01-06T02:05:38;22.33;;;9.83;;
73219;SDS011;61434;43.538;-5.688;2023-01-06T02:08:09;20.95;;;9.50;;
73219;SDS011;61434;43.538;-5.688;2023-01-06T02:10:57;20.63;;;10.30;;
73219;SDS011;61434;43.538;-5.688;2023-01-06T02:13:22;25.33;;;10.00;;
73219;SDS011;61434;43.538;-5.688;2023-01-06T02:15:48;20.85;;;9.60;;
73219;SDS011;61434;43.538;-5.688;2023-01-06T02:18:24;21.27;;;10.35;;
73219;SDS011;61434;43.538;-5.688;2023-01-06T02:34:35;23.50;;;10.07;;
73219;SDS011;61434;43.538;-5.688;2023-01-06T02:48:26;17.50;;;8.55;;
73219;SDS011;61434;43.538;-5.688;2023-01-06T02:53:38;20.42;;;8.50;;
73219;SDS011;61434;43.538;-5.688;2023-01-06T02:56:27;21.63;;;8.93;;
73219;SDS011;61434;43.538;-5.688;2023-01-06T02:58:58;16.75;;;8.95;;
73219;SDS011;61434;43.538;-5.688;2023-01-06T03:01:41;18.57;;;8.73;;
73219;SDS011;61434;43.538;-5.688;2023-01-06T03:04:11;19.60;;;8.68;;
73219;SDS011;61434;43.538;-5.688;2023-01-06T03:06:50;18.38;;;7.85;;
73219;SDS011;61434;43.538;-5.688;2023-01-06T03:09:20;18.77;;;8.50;;
73219;SDS011;61434;43.538;-5.688;2023-01-06T03:11:50;19.33;;;8.95;;
73219;SDS011;61434;43.538;-5.688;2023-01-06T03:14:26;16.50;;;8.43;;
73219;SDS011;61434;43.538;-5.688;2023-01-06T03:16:57;17.83;;;8.85;;
73219;SDS011;61434;43.538;-5.688;2023-01-06T03:19:22;21.23;;;9.13;;
73219;SDS011;61434;43.538;-5.688;2023-01-06T03:21:49;19.75;;;8.57;;
73219;SDS011;61434;43.538;-5.688;2023-01-06T03:24:16;18.60;;;8.63;;
73219;SDS011;61434;43.538;-5.688;2023-01-06T03:26:42;20.83;;;9.60;;
73219;SDS011;61434;43.538;-5.688;2023-01-06T03:29:11;18.67;;;8.97;;
73219;SDS011;61434;43.538;-5.688;2023-01-06T03:31:54;21.42;;;8.90;;
73219;SDS011;61434;43.538;-5.688;2023-01-06T03:38:01;17.67;;;8.00;;
73219;SDS011;61434;43.538;-5.688;2023-01-06T03:42:51;20.07;;;8.87;;
73219;SDS011;61434;43.538;-5.688;2023-01-06T03:56:22;17.33;;;8.23;;
73219;SDS011;61434;43.538;-5.688;2023-01-06T03:58:54;17.05;;;7.88;;
73219;SDS011;61434;43.538;-5.688;2023-01-06T04:01:23;19.05;;;8.30;;
73219;SDS011;61434;43.538;-5.688;2023-01-06T04:03:51;16.33;;;8.70;;
73219;SDS011;61434;43.538;-5.688;2023-01-06T04:06:18;19.38;;;8.75;;
73219;SDS011;61434;43.538;-5.688;2023-01-06T04:08:44;22.43;;;8.27;;
73219;SDS011;61434;43.538;-5.688;2023-01-06T04:11:10;19.77;;;7.93;;
73219;SDS011;61434;43.538;-5.688;2023-01-06T04:13:55;16.53;;;7.80;;
73219;SDS011;61434;43.538;-5.688;2023-01-06T04:16:21;17.17;;;7.50;;
73219;SDS011;61434;43.538;-5.688;2023-01-06T04:18:46;19.33;;;7.73;;
73219;SDS011;61434;43.538;-5.688;2023-01-06T04:21:12;16.48;;;7.78;;
73219;SDS011;61434;43.538;-5.688;2023-01-06T04:23:37;18.17;;;7.87;;
73219;SDS011;61434;43.538;-5.688;2023-01-06T04:26:03;21.53;;;8.60;;
73219;SDS011;61434;43.538;-5.688;2023-01-06T04:28:28;23.27;;;8.40;;
73219;SDS011;61434;43.538;-5.688;2023-01-06T04:30:57;20.80;;;8.02;;
73219;SDS011;61434;43.538;-5.688;2023-01-06T04:33:23;19.57;;;7.87;;
73219;SDS011;61434;43.538;-5.688;2023-01-06T04:35:49;14.70;;;7.20;;
73219;SDS011;61434;43.538;-5.688;2023-01-06T04:38:14;16.27;;;6.77;;
73219;SDS011;61434;43.538;-5.688;2023-01-06T04:40:40;15.43;;;7.53;;
73219;SDS011;61434;43.538;-5.688;2023-01-06T04:43:06;30.55;;;11.00;;
73219;SDS011;61434;43.538;-5.688;2023-01-06T04:45:38;28.08;;;13.90;;
73219;SDS011;61434;43.538;-5.688;2023-01-06T04:48:04;27.10;;;13.85;;
73219;SDS011;61434;43.538;-5.688;2023-01-06T04:50:30;24.60;;;12.43;;
73219;SDS011;61434;43.538;-5.688;2023-01-06T04:52:56;21.17;;;10.40;;
73219;SDS011;61434;43.538;-5.688;2023-01-06T04:55:21;18.67;;;8.13;;
73219;SDS011;61434;43.538;-5.688;2023-01-06T04:57:47;15.90;;;7.95;;
73219;SDS011;61434;43.538;-5.688;2023-01-06T05:00:13;31.87;;;8.30;;
73219;SDS011;61434;43.538;-5.688;2023-01-06T05:02:39;18.10;;;7.05;;
73219;SDS011;61434;43.538;-5.688;2023-01-06T05:05:04;16.03;;;7.10;;
73219;SDS011;61434;43.538;-5.688;2023-01-06T05:07:30;35.08;;;11.95;;
73219;SDS011;61434;43.538;-5.688;2023-01-06T05:09:55;67.07;;;19.57;;
73219;SDS011;61434;43.538;-5.688;2023-01-06T05:12:21;84.53;;;22.67;;
73219;SDS011;61434;43.538;-5.688;2023-01-06T05:14:46;83.13;;;23.13;;
73219;SDS011;61434;43.538;-5.688;2023-01-06T05:17:12;48.25;;;14.45;;
73219;SDS011;61434;43.538;-5.688;2023-01-06T05:19:37;28.50;;;10.23;;
73219;SDS011;61434;43.538;-5.688;2023-01-06T05:22:03;18.80;;;6.87;;
73219;SDS011;61434;43.538;-5.688;2023-01-06T05:24:28;17.08;;;6.70;;
73219;SDS011;61434;43.538;-5.688;2023-01-06T05:26:54;14.73;;;6.47;;
73219;SDS011;61434;43.538;-5.688;2023-01-06T05:29:19;17.93;;;6.83;;
73219;SDS011;61434;43.538;-5.688;2023-01-06T05:31:44;17.73;;;5.90;;
73219;SDS011;61434;43.538;-5.688;2023-01-06T05:34:10;14.60;;;6.07;;
73219;SDS011;61434;43.538;-5.688;2023-01-06T05:36:36;14.57;;;6.10;;
73219;SDS011;61434;43.538;-5.688;2023-01-06T05:39:01;16.23;;;6.53;;
73219;SDS011;61434;43.538;-5.688;2023-01-06T05:41:26;15.05;;;6.25;;
73219;SDS011;61434;43.538;-5.688;2023-01-06T05:43:52;16.67;;;6.60;;
73219;SDS011;61434;43.538;-5.688;2023-01-06T05:46:17;15.70;;;6.20;;
73219;SDS011;61434;43.538;-5.688;2023-01-06T05:48:43;16.93;;;6.07;;
73219;SDS011;61434;43.538;-5.688;2023-01-06T05:51:10;14.13;;;6.53;;
73219;SDS011;61434;43.538;-5.688;2023-01-06T05:53:38;13.25;;;5.65;;
73219;SDS011;61434;43.538;-5.688;2023-01-06T05:56:06;16.85;;;5.85;;
73219;SDS011;61434;43.538;-5.688;2023-01-06T05:58:33;14.25;;;5.40;;
73219;SDS011;61434;43.538;-5.688;2023-01-06T06:01:00;13.38;;;5.70;;
73219;SDS011;61434;43.538;-5.688;2023-01-06T06:03:26;13.13;;;5.77;;
73219;SDS011;61434;43.538;-5.688;2023-01-06T06:05:52;14.88;;;5.90;;
73219;SDS011;61434;43.538;-5.688;2023-01-06T06:08:17;12.63;;;5.20;;
73219;SDS011;61434;43.538;-5.688;2023-01-06T06:10:43;13.87;;;5.00;;
73219;SDS011;61434;43.538;-5.688;2023-01-06T06:13:09;13.70;;;5.10;;
73219;SDS011;61434;43.538;-5.688;2023-01-06T06:15:34;12.18;;;4.63;;
73219;SDS011;61434;43.538;-5.688;2023-01-06T06:18:00;12.93;;;5.57;;
73219;SDS011;61434;43.538;-5.688;2023-01-06T06:20:27;13.48;;;5.30;;
73219;SDS011;61434;43.538;-5.688;2023-01-06T06:22:52;11.93;;;4.70;;
73219;SDS011;61434;43.538;-5.688;2023-01-06T06:25:18;16.38;;;5.95;;
73219;SDS011;61434;43.538;-5.688;2023-01-06T06:27:44;12.07;;;5.13;;
73219;SDS011;61434;43.538;-5.688;2023-01-06T06:30:09;13.52;;;4.85;;
73219;SDS011;61434;43.538;-5.688;2023-01-06T06:32:35;12.77;;;5.10;;
73219;SDS011;61434;43.538;-5.688;2023-01-06T06:35:01;14.53;;;5.43;;
73219;SDS011;61434;43.538;-5.688;2023-01-06T06:37:26;13.20;;;5.15;;
73219;SDS011;61434;43.538;-5.688;2023-01-06T06:39:51;13.83;;;5.33;;
73219;SDS011;61434;43.538;-5.688;2023-01-06T06:42:17;12.67;;;5.00;;
73219;SDS011;61434;43.538;-5.688;2023-01-06T06:44:42;9.97;;;4.33;;
73219;SDS011;61434;43.538;-5.688;2023-01-06T06:47:08;10.85;;;4.38;;
73219;SDS011;61434;43.538;-5.688;2023-01-06T06:49:33;14.97;;;6.97;;
73219;SDS011;61434;43.538;-5.688;2023-01-06T06:51:59;14.40;;;7.60;;
73219;SDS011;61434;43.538;-5.688;2023-01-06T06:54:24;15.73;;;7.20;;
73219;SDS011;61434;43.538;-5.688;2023-01-06T06:56:49;14.83;;;6.20;;
73219;SDS011;61434;43.538;-5.688;2023-01-06T06:59:15;11.57;;;5.07;;
73219;SDS011;61434;43.538;-5.688;2023-01-06T07:01:41;10.93;;;4.73;;
73219;SDS011;61434;43.538;-5.688;2023-01-06T07:04:07;13.50;;;4.47;;
73219;SDS011;61434;43.538;-5.688;2023-01-06T07:06:33;11.18;;;4.50;;
73219;SDS011;61434;43.538;-5.688;2023-01-06T07:08:58;14.07;;;4.68;;
73219;SDS011;61434;43.538;-5.688;2023-01-06T07:11:24;12.07;;;5.00;;
73219;SDS011;61434;43.538;-5.688;2023-01-06T07:13:49;12.47;;;4.90;;
73219;SDS011;61434;43.538;-5.688;2023-01-06T07:16:15;13.45;;;5.47;;
73219;SDS011;61434;43.538;-5.688;2023-01-06T07:18:41;15.33;;;5.33;;
73219;SDS011;61434;43.538;-5.688;2023-01-06T07:21:06;14.68;;;5.40;;
73219;SDS011;61434;43.538;-5.688;2023-01-06T07:23:32;14.70;;;5.03;;
73219;SDS011;61434;43.538;-5.688;2023-01-06T07:25:59;11.85;;;4.40;;
73219;SDS011;61434;43.538;-5.688;2023-01-06T07:28:26;12.02;;;4.70;;
73219;SDS011;61434;43.538;-5.688;2023-01-06T07:30:52;10.50;;;4.27;;
73219;SDS011;61434;43.538;-5.688;2023-01-06T07:33:19;12.80;;;4.75;;
73219;SDS011;61434;43.538;-5.688;2023-01-06T07:35:45;9.98;;;4.38;;
73219;SDS011;61434;43.538;-5.688;2023-01-06T07:38:10;10.73;;;4.30;;
73219;SDS011;61434;43.538;-5.688;2023-01-06T07:40:36;10.90;;;4.22;;
73219;SDS011;61434;43.538;-5.688;2023-01-06T07:43:05;12.03;;;4.30;;
73219;SDS011;61434;43.538;-5.688;2023-01-06T07:45:32;14.30;;;5.63;;
73219;SDS011;61434;43.538;-5.688;2023-01-06T07:47:58;14.48;;;6.43;;
73219;SDS011;61434;43.538;-5.688;2023-01-06T07:50:23;14.93;;;6.40;;
73219;SDS011;61434;43.538;-5.688;2023-01-06T07:52:49;14.95;;;5.30;;
73219;SDS011;61434;43.538;-5.688;2023-01-06T07:55:15;12.00;;;5.43;;
73219;SDS011;61434;43.538;-5.688;2023-01-06T07:57:40;12.07;;;4.53;;
73219;SDS011;61434;43.538;-5.688;2023-01-06T08:00:06;12.25;;;5.82;;
73219;SDS011;61434;43.538;-5.688;2023-01-06T08:02:32;14.82;;;6.90;;
73219;SDS011;61434;43.538;-5.688;2023-01-06T08:04:58;14.40;;;5.80;;
73219;SDS011;61434;43.538;-5.688;2023-01-06T08:07:23;16.60;;;5.60;;
73219;SDS011;61434;43.538;-5.688;2023-01-06T08:09:49;12.10;;;5.55;;
73219;SDS011;61434;43.538;-5.688;2023-01-06T08:12:14;12.80;;;4.43;;
73219;SDS011;61434;43.538;-5.688;2023-01-06T08:14:40;10.93;;;4.40;;
73219;SDS011;61434;43.538;-5.688;2023-01-06T08:17:05;12.33;;;4.00;;
73219;SDS011;61434;43.538;-5.688;2023-01-06T08:19:31;11.38;;;4.35;;
73219;SDS011;61434;43.538;-5.688;2023-01-06T08:21:57;10.82;;;4.18;;
73219;SDS011;61434;43.538;-5.688;2023-01-06T08:24:22;10.00;;;4.30;;
73219;SDS011;61434;43.538;-5.688;2023-01-06T08:26:48;15.43;;;5.37;;
73219;SDS011;61434;43.538;-5.688;2023-01-06T08:29:13;11.30;;;3.93;;
73219;SDS011;61434;43.538;-5.688;2023-01-06T08:31:39;10.30;;;3.95;;
73219;SDS011;61434;43.538;-5.688;2023-01-06T08:34:04;11.90;;;4.80;;
73219;SDS011;61434;43.538;-5.688;2023-01-06T08:36:30;10.50;;;4.90;;
73219;SDS011;61434;43.538;-5.688;2023-01-06T08:38:55;9.98;;;3.92;;
73219;SDS011;61434;43.538;-5.688;2023-01-06T08:41:21;11.00;;;3.97;;
73219;SDS011;61434;43.538;-5.688;2023-01-06T08:43:47;11.88;;;4.35;;
73219;SDS011;61434;43.538;-5.688;2023-01-06T08:46:14;10.35;;;4.18;;
73219;SDS011;61434;43.538;-5.688;2023-01-06T08:48:41;10.07;;;4.20;;
73219;SDS011;61434;43.538;-5.688;2023-01-06T08:51:10;12.50;;;4.30;;
73219;SDS011;61434;43.538;-5.688;2023-01-06T08:53:47;11.15;;;4.00;;
73219;SDS011;61434;43.538;-5.688;2023-01-06T08:56:15;9.60;;;4.05;;
73219;SDS011;61434;43.538;-5.688;2023-01-06T08:58:42;9.17;;;3.80;;
73219;SDS011;61434;43.538;-5.688;2023-01-06T09:01:15;11.00;;;3.75;;
73219;SDS011;61434;43.538;-5.688;2023-01-06T09:03:41;11.57;;;4.10;;
73219;SDS011;61434;43.538;-5.688;2023-01-06T09:06:07;10.27;;;3.47;;
73219;SDS011;61434;43.538;-5.688;2023-01-06T09:08:32;8.90;;;3.40;;
73219;SDS011;61434;43.538;-5.688;2023-01-06T09:10:59;10.00;;;3.50;;
73219;SDS011;61434;43.538;-5.688;2023-01-06T09:13:29;11.23;;;3.50;;
73219;SDS011;61434;43.538;-5.688;2023-01-06T09:15:54;10.95;;;3.60;;
73219;SDS011;61434;43.538;-5.688;2023-01-06T09:18:20;10.13;;;2.97;;
73219;SDS011;61434;43.538;-5.688;2023-01-06T09:20:45;11.53;;;3.63;;
73219;SDS011;61434;43.538;-5.688;2023-01-06T09:23:11;8.60;;;3.10;;
73219;SDS011;61434;43.538;-5.688;2023-01-06T09:25:36;10.95;;;3.55;;
73219;SDS011;61434;43.538;-5.688;2023-01-06T09:28:02;9.10;;;3.20;;
73219;SDS011;61434;43.538;-5.688;2023-01-06T09:30:27;10.43;;;3.53;;
73219;SDS011;61434;43.538;-5.688;2023-01-06T09:32:53;10.90;;;3.47;;
73219;SDS011;61434;43.538;-5.688;2023-01-06T09:35:18;9.10;;;3.42;;
73219;SDS011;61434;43.538;-5.688;2023-01-06T09:37:44;11.33;;;4.20;;
73219;SDS011;61434;43.538;-5.688;2023-01-06T09:40:14;9.60;;;3.67;;
73219;SDS011;61434;43.538;-5.688;2023-01-06T09:45:19;12.82;;;4.38;;
73219;SDS011;61434;43.538;-5.688;2023-01-06T09:47:58;8.88;;;4.53;;
73219;SDS011;61434;43.538;-5.688;2023-01-06T09:53:00;8.27;;;4.60;;
73219;SDS011;61434;43.538;-5.688;2023-01-06T09:55:31;10.50;;;5.00;;
73219;SDS011;61434;43.538;-5.688;2023-01-06T10:01:09;9.48;;;5.28;;
73219;SDS011;61434;43.538;-5.688;2023-01-06T10:03:37;10.20;;;5.68;;
73219;SDS011;61434;43.538;-5.688;2023-01-06T10:17:10;8.90;;;5.68;;
73219;SDS011;61434;43.538;-5.688;2023-01-06T10:26:10;10.25;;;5.30;;
73219;SDS011;61434;43.538;-5.688;2023-01-06T10:28:39;10.43;;;5.35;;
73219;SDS011;61434;43.538;-5.688;2023-01-06T10:31:22;11.48;;;5.90;;
73219;SDS011;61434;43.538;-5.688;2023-01-06T10:33:52;11.07;;;5.88;;
73219;SDS011;61434;43.538;-5.688;2023-01-06T10:36:41;10.88;;;5.70;;
73219;SDS011;61434;43.538;-5.688;2023-01-06T10:39:17;11.75;;;5.97;;
73219;SDS011;61434;43.538;-5.688;2023-01-06T10:41:49;11.57;;;5.82;;
73219;SDS011;61434;43.538;-5.688;2023-01-06T10:44:41;10.38;;;5.80;;
73219;SDS011;61434;43.538;-5.688;2023-01-06T10:47:09;9.93;;;5.10;;
73219;SDS011;61434;43.538;-5.688;2023-01-06T10:49:49;9.82;;;4.53;;
73219;SDS011;61434;43.538;-5.688;2023-01-06T10:52:14;10.80;;;5.30;;
73219;SDS011;61434;43.538;-5.688;2023-01-06T10:54:40;8.95;;;4.43;;
73219;SDS011;61434;43.538;-5.688;2023-01-06T10:57:12;12.00;;;4.03;;
73219;SDS011;61434;43.538;-5.688;2023-01-06T11:02:31;8.57;;;4.07;;
73219;SDS011;61434;43.538;-5.688;2023-01-06T11:04:59;9.20;;;3.47;;
73219;SDS011;61434;43.538;-5.688;2023-01-06T11:07:25;8.30;;;3.63;;
73219;SDS011;61434;43.538;-5.688;2023-01-06T11:09:51;10.32;;;3.55;;
73219;SDS011;61434;43.538;-5.688;2023-01-06T11:12:17;10.13;;;3.93;;
73219;SDS011;61434;43.538;-5.688;2023-01-06T11:15:05;9.73;;;3.85;;
73219;SDS011;61434;43.538;-5.688;2023-01-06T11:17:32;9.48;;;3.83;;
73219;SDS011;61434;43.538;-5.688;2023-01-06T11:20:05;9.77;;;4.07;;
73219;SDS011;61434;43.538;-5.688;2023-01-06T11:22:38;9.07;;;3.55;;
73219;SDS011;61434;43.538;-5.688;2023-01-06T11:27:43;8.88;;;3.90;;
73219;SDS011;61434;43.538;-5.688;2023-01-06T11:30:29;9.27;;;3.75;;
73219;SDS011;61434;43.538;-5.688;2023-01-06T11:32:54;10.40;;;4.40;;
73219;SDS011;61434;43.538;-5.688;2023-01-06T11:35:20;10.80;;;3.80;;
73219;SDS011;61434;43.538;-5.688;2023-01-06T11:37:55;9.75;;;3.70;;
73219;SDS011;61434;43.538;-5.688;2023-01-06T11:43:14;9.80;;;3.53;;
73219;SDS011;61434;43.538;-5.688;2023-01-06T11:46:03;8.95;;;3.33;;
73219;SDS011;61434;43.538;-5.688;2023-01-06T11:48:33;7.78;;;3.25;;
73219;SDS011;61434;43.538;-5.688;2023-01-06T11:51:04;10.57;;;3.88;;
73219;SDS011;61434;43.538;-5.688;2023-01-06T11:53:33;9.70;;;3.50;;
73219;SDS011;61434;43.538;-5.688;2023-01-06T12:07:00;9.80;;;2.90;;
73219;SDS011;61434;43.538;-5.688;2023-01-06T12:09:35;12.43;;;3.33;;
73219;SDS011;61434;43.538;-5.688;2023-01-06T12:12:04;9.88;;;3.08;;
73219;SDS011;61434;43.538;-5.688;2023-01-06T12:14:34;8.98;;;3.13;;
73219;SDS011;61434;43.538;-5.688;2023-01-06T12:22:31;7.53;;;3.10;;
73219;SDS011;61434;43.538;-5.688;2023-01-06T12:25:02;7.82;;;3.72;;
73219;SDS011;61434;43.538;-5.688;2023-01-06T12:27:34;7.88;;;2.92;;
73219;SDS011;61434;43.538;-5.688;2023-01-06T12:30:07;8.90;;;2.80;;
73219;SDS011;61434;43.538;-5.688;2023-01-06T12:32:40;7.65;;;3.35;;
73219;SDS011;61434;43.538;-5.688;2023-01-06T12:35:13;9.93;;;3.40;;
73219;SDS011;61434;43.538;-5.688;2023-01-06T12:37:44;8.30;;;3.30;;
73219;SDS011;61434;43.538;-5.688;2023-01-06T12:45:47;9.23;;;3.50;;
73219;SDS011;61434;43.538;-5.688;2023-01-06T12:48:24;13.57;;;3.80;;
73219;SDS011;61434;43.538;-5.688;2023-01-06T12:51:05;9.25;;;4.43;;
73219;SDS011;61434;43.538;-5.688;2023-01-06T12:53:37;12.88;;;5.10;;
73219;SDS011;61434;43.538;-5.688;2023-01-06T13:18:37;14.40;;;5.00;;
73219;SDS011;61434;43.538;-5.688;2023-01-06T13:21:07;10.23;;;4.57;;
73219;SDS011;61434;43.538;-5.688;2023-01-06T13:37:22;10.63;;;4.00;;
73219;SDS011;61434;43.538;-5.688;2023-01-06T13:40:06;11.93;;;5.07;;
73219;SDS011;61434;43.538;-5.688;2023-01-06T13:42:45;8.20;;;3.60;;
73219;SDS011;61434;43.538;-5.688;2023-01-06T13:45:16;10.00;;;4.82;;
73219;SDS011;61434;43.538;-5.688;2023-01-06T13:47:45;13.85;;;4.55;;
73219;SDS011;61434;43.538;-5.688;2023-01-06T13:50:13;18.55;;;5.30;;
73219;SDS011;61434;43.538;-5.688;2023-01-06T13:52:40;17.80;;;5.43;;
73219;SDS011;61434;43.538;-5.688;2023-01-06T13:57:52;19.60;;;6.13;;
73219;SDS011;61434;43.538;-5.688;2023-01-06T14:00:18;16.02;;;5.72;;
73219;SDS011;61434;43.538;-5.688;2023-01-06T14:10:26;21.58;;;6.50;;
73219;SDS011;61434;43.538;-5.688;2023-01-06T14:12:59;15.77;;;5.87;;
73219;SDS011;61434;43.538;-5.688;2023-01-06T14:15:31;15.75;;;6.22;;
73219;SDS011;61434;43.538;-5.688;2023-01-06T14:17:59;14.77;;;5.70;;
73219;SDS011;61434;43.538;-5.688;2023-01-06T14:20:30;13.75;;;4.93;;
73219;SDS011;61434;43.538;-5.688;2023-01-06T14:23:02;13.40;;;5.70;;
73219;SDS011;61434;43.538;-5.688;2023-01-06T14:25:28;17.63;;;6.07;;
73219;SDS011;61434;43.538;-5.688;2023-01-06T14:30:25;13.40;;;4.72;;
73219;SDS011;61434;43.538;-5.688;2023-01-06T14:35:37;14.75;;;4.88;;
73219;SDS011;61434;43.538;-5.688;2023-01-06T14:38:24;11.83;;;4.33;;
73219;SDS011;61434;43.538;-5.688;2023-01-06T14:43:46;11.85;;;4.20;;
73219;SDS011;61434;43.538;-5.688;2023-01-06T14:46:24;14.85;;;3.67;;
73219;SDS011;61434;43.538;-5.688;2023-01-06T14:49:01;13.98;;;3.67;;
73219;SDS011;61434;43.538;-5.688;2023-01-06T14:51:28;11.80;;;3.73;;
73219;SDS011;61434;43.538;-5.688;2023-01-06T14:54:06;11.88;;;3.58;;
73219;SDS011;61434;43.538;-5.688;2023-01-06T14:56:42;11.70;;;4.03;;
73219;SDS011;61434;43.538;-5.688;2023-01-06T14:59:16;12.00;;;4.18;;
73219;SDS011;61434;43.538;-5.688;2023-01-06T15:01:42;13.13;;;4.70;;
73219;SDS011;61434;43.538;-5.688;2023-01-06T15:04:22;19.08;;;4.60;;
73219;SDS011;61434;43.538;-5.688;2023-01-06T15:06:58;18.98;;;5.22;;
73219;SDS011;61434;43.538;-5.688;2023-01-06T15:09:24;20.60;;;4.63;;
73219;SDS011;61434;43.538;-5.688;2023-01-06T15:11:49;19.13;;;4.88;;
73219;SDS011;61434;43.538;-5.688;2023-01-06T15:16:51;17.95;;;5.45;;
73219;SDS011;61434;43.538;-5.688;2023-01-06T15:19:18;18.20;;;5.20;;
73219;SDS011;61434;43.538;-5.688;2023-01-06T15:21:44;14.05;;;4.97;;
73219;SDS011;61434;43.538;-5.688;2023-01-06T15:24:17;17.40;;;5.70;;
73219;SDS011;61434;43.538;-5.688;2023-01-06T15:26:45;16.42;;;5.32;;
73219;SDS011;61434;43.538;-5.688;2023-01-06T15:29:15;16.88;;;4.90;;
73219;SDS011;61434;43.538;-5.688;2023-01-06T15:31:42;14.65;;;4.82;;
73219;SDS011;61434;43.538;-5.688;2023-01-06T15:34:20;12.95;;;4.70;;
73219;SDS011;61434;43.538;-5.688;2023-01-06T15:36:56;15.90;;;5.90;;
73219;SDS011;61434;43.538;-5.688;2023-01-06T15:39:24;15.73;;;5.75;;
73219;SDS011;61434;43.538;-5.688;2023-01-06T15:41:54;12.98;;;4.78;;
73219;SDS011;61434;43.538;-5.688;2023-01-06T15:46:46;14.17;;;4.07;;
73219;SDS011;61434;43.538;-5.688;2023-01-06T15:49:25;11.40;;;3.35;;
73219;SDS011;61434;43.538;-5.688;2023-01-06T15:52:02;9.25;;;3.90;;
73219;SDS011;61434;43.538;-5.688;2023-01-06T15:54:34;14.77;;;4.83;;
73219;SDS011;61434;43.538;-5.688;2023-01-06T15:57:02;14.57;;;3.95;;
73219;SDS011;61434;43.538;-5.688;2023-01-06T15:59:34;17.27;;;7.07;;
73219;SDS011;61434;43.538;-5.688;2023-01-06T16:02:01;17.10;;;6.40;;
73219;SDS011;61434;43.538;-5.688;2023-01-06T16:04:27;16.55;;;6.72;;
73219;SDS011;61434;43.538;-5.688;2023-01-06T16:06:53;19.23;;;6.20;;
73219;SDS011;61434;43.538;-5.688;2023-01-06T16:11:56;14.87;;;4.20;;
73219;SDS011;61434;43.538;-5.688;2023-01-06T16:14:35;13.20;;;4.70;;
73219;SDS011;61434;43.538;-5.688;2023-01-06T16:20:03;12.32;;;3.95;;
73219;SDS011;61434;43.538;-5.688;2023-01-06T16:24:56;12.30;;;4.18;;
73219;SDS011;61434;43.538;-5.688;2023-01-06T16:27:56;11.73;;;3.87;;
73219;SDS011;61434;43.538;-5.688;2023-01-06T16:30:25;15.25;;;4.35;;
73219;SDS011;61434;43.538;-5.688;2023-01-06T16:32:52;12.43;;;4.90;;
73219;SDS011;61434;43.538;-5.688;2023-01-06T16:35:20;14.18;;;4.88;;
73219;SDS011;61434;43.538;-5.688;2023-01-06T16:37:47;15.45;;;6.13;;
73219;SDS011;61434;43.538;-5.688;2023-01-06T16:40:16;13.37;;;6.90;;
73219;SDS011;61434;43.538;-5.688;2023-01-06T16:42:43;16.17;;;6.72;;
73219;SDS011;61434;43.538;-5.688;2023-01-06T16:45:12;15.18;;;6.53;;
73219;SDS011;61434;43.538;-5.688;2023-01-06T16:47:39;13.27;;;5.15;;
73219;SDS011;61434;43.538;-5.688;2023-01-06T16:52:47;10.83;;;4.80;;
73219;SDS011;61434;43.538;-5.688;2023-01-06T16:55:16;11.93;;;5.40;;
73219;SDS011;61434;43.538;-5.688;2023-01-06T16:57:47;12.70;;;5.13;;
73219;SDS011;61434;43.538;-5.688;2023-01-06T17:00:15;12.80;;;5.05;;
73219;SDS011;61434;43.538;-5.688;2023-01-06T17:02:43;12.95;;;6.22;;
73219;SDS011;61434;43.538;-5.688;2023-01-06T17:05:16;12.63;;;5.23;;
73219;SDS011;61434;43.538;-5.688;2023-01-06T17:07:50;11.75;;;5.03;;
73219;SDS011;61434;43.538;-5.688;2023-01-06T17:10:20;14.45;;;5.13;;
73219;SDS011;61434;43.538;-5.688;2023-01-06T17:12:55;15.63;;;6.57;;
73219;SDS011;61434;43.538;-5.688;2023-01-06T17:15:41;17.50;;;7.50;;
73219;SDS011;61434;43.538;-5.688;2023-01-06T17:18:21;21.73;;;8.73;;
73219;SDS011;61434;43.538;-5.688;2023-01-06T17:20:49;29.58;;;11.48;;
73219;SDS011;61434;43.538;-5.688;2023-01-06T17:23:17;27.98;;;12.65;;